createdAt,value
2022-07-30T00:02:06.912Z,15.50
2022-07-30T00:07:35.490Z,15.40
2022-07-30T00:10:05.887Z,15.40
2022-07-30T00:12:34.279Z,15.40
2022-07-30T00:15:03.873Z,15.30
2022-07-30T00:17:34.512Z,15.30
2022-07-30T00:20:02.934Z,15.20
2022-07-30T00:22:33.261Z,15.20
2022-07-30T00:25:10.282Z,15.20
2022-07-30T00:27:39.629Z,15.20
2022-07-30T00:30:15.167Z,15.10
2022-07-30T00:32:43.786Z,15.10
2022-07-30T00:35:13.888Z,15.10
2022-07-30T00:37:43.291Z,15.10
2022-07-30T00:40:18.577Z,15.00
2022-07-30T00:42:50.968Z,15.00
2022-07-30T00:45:22.095Z,15.00
2022-07-30T00:47:52.682Z,14.90
2022-07-30T00:50:27.650Z,14.90
2022-07-30T00:52:54.831Z,14.90
2022-07-30T00:55:22.192Z,14.80
2022-07-30T00:57:49.392Z,14.80
2022-07-30T01:00:18.728Z,14.70
2022-07-30T01:02:48.682Z,14.60
2022-07-30T01:05:19.277Z,14.60
2022-07-30T01:07:54.818Z,14.60
2022-07-30T01:10:25.024Z,14.50
2022-07-30T01:12:54.935Z,14.40
2022-07-30T01:15:22.322Z,14.40
2022-07-30T01:17:52.948Z,14.40
2022-07-30T01:20:46.013Z,14.30
2022-07-30T01:23:23.278Z,14.30
2022-07-30T01:26:07.476Z,14.30
2022-07-30T01:28:38.831Z,14.30
2022-07-30T01:31:08.467Z,14.20
2022-07-30T01:33:40.456Z,14.20
2022-07-30T01:36:14.070Z,14.20
2022-07-30T01:38:44.987Z,14.30
2022-07-30T01:41:18.309Z,14.30
2022-07-30T01:43:46.754Z,14.20
2022-07-30T01:46:16.428Z,14.20
2022-07-30T01:48:46.966Z,14.20
2022-07-30T01:51:19.427Z,14.20
2022-07-30T01:53:51.397Z,14.20
2022-07-30T01:56:24.740Z,14.10
2022-07-30T01:58:55.442Z,14.10
2022-07-30T02:01:27.252Z,14.00
2022-07-30T02:04:01.765Z,14.00
2022-07-30T02:06:38.928Z,13.90
2022-07-30T02:09:11.152Z,13.80
2022-07-30T02:12:05.011Z,13.80
2022-07-30T02:14:44.796Z,13.70
2022-07-30T02:17:18.924Z,13.60
2022-07-30T02:19:51.073Z,13.60
2022-07-30T02:22:20.796Z,13.50
2022-07-30T02:24:51.989Z,13.50
2022-07-30T02:27:28.788Z,13.50
2022-07-30T02:29:59.289Z,13.40
2022-07-30T02:32:35.069Z,13.40
2022-07-30T02:35:11.694Z,13.40
2022-07-30T02:37:43.987Z,13.40
2022-07-30T02:40:15.923Z,13.30
2022-07-30T02:42:46.499Z,13.30
2022-07-30T02:45:18.481Z,13.30
2022-07-30T02:47:53.361Z,13.30
2022-07-30T02:50:21.894Z,13.30
2022-07-30T02:52:50.930Z,13.30
2022-07-30T02:55:18.647Z,13.20
2022-07-30T02:57:46.927Z,13.20
2022-07-30T03:00:14.515Z,13.20
2022-07-30T03:02:43.803Z,13.10
2022-07-30T03:05:13.577Z,13.10
2022-07-30T03:07:41.990Z,13.10
2022-07-30T03:10:11.196Z,13.10
2022-07-30T03:12:40.345Z,13.10
2022-07-30T03:15:08.491Z,13.00
2022-07-30T03:17:42.990Z,13.10
2022-07-30T03:20:12.830Z,13.10
2022-07-30T03:22:44.402Z,13.10
2022-07-30T03:25:14.961Z,13.20
2022-07-30T03:27:43.615Z,13.30
2022-07-30T03:30:12.299Z,13.30
2022-07-30T03:32:40.291Z,13.40
2022-07-30T03:35:16.972Z,13.50
2022-07-30T03:37:46.704Z,13.50
2022-07-30T03:40:15.027Z,13.60
2022-07-30T03:42:45.370Z,13.70
2022-07-30T03:45:15.700Z,13.80
2022-07-30T03:47:44.410Z,13.80
2022-07-30T03:50:14.112Z,13.90
2022-07-30T03:52:42.297Z,14.10
2022-07-30T03:55:14.778Z,14.20
2022-07-30T03:57:51.218Z,14.30
2022-07-30T04:00:23.739Z,14.40
2022-07-30T04:02:53.951Z,14.50
2022-07-30T04:05:37.368Z,14.60
2022-07-30T04:08:08.198Z,14.70
2022-07-30T04:10:35.842Z,14.80
2022-07-30T04:13:29.289Z,14.90
2022-07-30T04:16:39.713Z,14.90
2022-07-30T04:19:12.393Z,14.90
2022-07-30T04:21:41.452Z,15.00
2022-07-30T04:24:12.640Z,15.00
2022-07-30T04:26:40.047Z,15.10
2022-07-30T04:29:16.606Z,15.10
2022-07-30T04:31:46.864Z,15.10
2022-07-30T04:34:32.701Z,15.20
2022-07-30T04:37:00.653Z,15.20
2022-07-30T04:39:29.510Z,15.20
2022-07-30T04:41:56.664Z,15.20
2022-07-30T04:44:35.574Z,15.30
2022-07-30T04:47:28.980Z,15.30
2022-07-30T04:50:16.722Z,15.40
2022-07-30T04:52:46.358Z,15.40
2022-07-30T04:55:21.041Z,15.50
2022-07-30T04:57:51.432Z,15.50
2022-07-30T05:00:19.236Z,15.60
2022-07-30T05:02:48.199Z,15.60
2022-07-30T05:05:17.498Z,15.60
2022-07-30T05:07:46.550Z,15.70
2022-07-30T05:10:14.731Z,15.70
2022-07-30T05:12:42.950Z,15.80
2022-07-30T05:15:11.569Z,15.80
2022-07-30T05:17:39.127Z,15.90
2022-07-30T05:20:09.648Z,15.90
2022-07-30T05:22:55.495Z,15.90
2022-07-30T05:25:24.371Z,16.00
2022-07-30T05:27:56.664Z,16.00
2022-07-30T05:30:27.559Z,16.10
2022-07-30T05:32:57.662Z,16.20
2022-07-30T05:35:26.100Z,16.20
2022-07-30T05:37:54.250Z,16.20
2022-07-30T05:40:22.124Z,16.10
2022-07-30T05:43:04.898Z,16.10
2022-07-30T05:45:32.396Z,16.20
2022-07-30T05:47:59.621Z,16.20
2022-07-30T05:50:26.829Z,16.30
2022-07-30T05:52:55.931Z,16.20
2022-07-30T05:55:43.404Z,16.20
2022-07-30T05:58:19.251Z,16.20
2022-07-30T06:00:46.918Z,16.30
2022-07-30T06:03:14.375Z,16.30
2022-07-30T06:05:59.462Z,16.40
2022-07-30T06:08:26.642Z,16.60
2022-07-30T06:10:53.886Z,16.70
2022-07-30T06:13:21.251Z,16.80
2022-07-30T06:15:48.694Z,16.90
2022-07-30T06:18:16.032Z,17.00
2022-07-30T06:20:49.454Z,17.10
2022-07-30T06:23:25.916Z,17.30
2022-07-30T06:26:09.711Z,17.30
2022-07-30T06:28:38.820Z,17.40
2022-07-30T06:31:15.401Z,17.40
2022-07-30T06:33:43.374Z,17.70
2022-07-30T06:36:14.068Z,18.00
2022-07-30T06:39:00.043Z,18.30
2022-07-30T06:41:47.153Z,18.50
2022-07-30T06:44:15.453Z,18.80
2022-07-30T06:47:07.156Z,19.00
2022-07-30T06:49:39.032Z,19.10
2022-07-30T06:52:09.143Z,19.20
2022-07-30T06:54:36.923Z,19.40
2022-07-30T06:57:16.386Z,19.60
2022-07-30T06:59:57.155Z,19.60
2022-07-30T07:02:44.965Z,19.60
2022-07-30T07:05:13.920Z,19.70
2022-07-30T07:07:56.497Z,19.80
2022-07-30T07:10:27.238Z,20.00
2022-07-30T07:13:03.087Z,20.20
2022-07-30T07:15:36.319Z,20.40
2022-07-30T07:18:06.886Z,20.40
2022-07-30T07:20:37.448Z,20.30
2022-07-30T07:23:09.525Z,20.30
2022-07-30T07:25:41.217Z,20.30
2022-07-30T07:28:11.660Z,20.30
2022-07-30T07:30:43.444Z,20.50
2022-07-30T07:33:12.208Z,20.70
2022-07-30T07:35:49.621Z,20.90
2022-07-30T07:38:25.024Z,20.80
2022-07-30T07:40:54.243Z,20.70
2022-07-30T07:43:22.038Z,20.60
2022-07-30T07:45:51.157Z,20.50
2022-07-30T07:48:19.299Z,20.50
2022-07-30T07:50:52.457Z,20.40
2022-07-30T07:53:25.450Z,20.20
2022-07-30T07:55:52.947Z,19.80
2022-07-30T07:58:25.399Z,19.90
2022-07-30T08:00:54.834Z,19.90
2022-07-30T08:03:26.025Z,20.10
2022-07-30T08:06:06.026Z,20.40
2022-07-30T08:08:48.202Z,20.90
2022-07-30T08:11:35.665Z,21.00
2022-07-30T08:14:34.801Z,20.80
2022-07-30T08:17:41.974Z,20.70
2022-07-30T08:20:16.220Z,20.90
2022-07-30T08:22:44.719Z,21.00
2022-07-30T08:25:11.974Z,21.30
2022-07-30T08:27:49.839Z,21.60
2022-07-30T08:30:17.160Z,21.90
2022-07-30T08:32:45.169Z,22.00
2022-07-30T08:35:12.726Z,22.00
2022-07-30T08:37:42.150Z,22.10
2022-07-30T08:40:10.153Z,21.80
2022-07-30T08:42:47.162Z,21.40
2022-07-30T08:45:14.833Z,21.20
2022-07-30T08:47:44.864Z,21.30
2022-07-30T08:50:12.947Z,21.40
2022-07-30T08:53:15.675Z,21.50
2022-07-30T08:55:44.843Z,21.90
2022-07-30T08:58:29.480Z,21.80
2022-07-30T09:00:57.834Z,22.50
2022-07-30T09:03:25.223Z,23.80
2022-07-30T09:05:52.700Z,25.00
2022-07-30T09:08:20.027Z,26.00
2022-07-30T09:10:52.764Z,27.00
2022-07-30T09:13:34.428Z,27.60
2022-07-30T09:16:03.192Z,28.00
2022-07-30T09:18:38.348Z,28.80
2022-07-30T09:21:24.034Z,28.90
2022-07-30T09:24:09.231Z,28.90
2022-07-30T09:27:00.759Z,28.90
2022-07-30T09:29:37.157Z,29.30
2022-07-30T09:32:22.921Z,28.60
2022-07-30T09:35:14.776Z,28.70
2022-07-30T09:38:06.753Z,29.00
2022-07-30T09:40:57.516Z,29.10
2022-07-30T09:43:51.419Z,29.50
2022-07-30T09:46:50.893Z,29.10
2022-07-30T09:49:32.972Z,29.60
2022-07-30T09:52:15.840Z,30.40
2022-07-30T09:55:07.177Z,31.00
2022-07-30T09:58:01.537Z,31.40
2022-07-30T10:00:36.393Z,31.40
2022-07-30T10:03:46.621Z,31.70
2022-07-30T10:06:44.384Z,31.20
2022-07-30T10:09:37.418Z,31.30
2022-07-30T10:12:10.501Z,31.10
2022-07-30T10:14:43.973Z,30.20
2022-07-30T10:17:13.542Z,30.10
2022-07-30T10:19:47.251Z,30.20
2022-07-30T10:22:25.268Z,29.90
2022-07-30T10:25:16.312Z,30.00
2022-07-30T10:28:03.671Z,30.80
2022-07-30T10:30:33.470Z,31.20
2022-07-30T10:33:01.822Z,31.30
2022-07-30T10:35:34.699Z,31.50
2022-07-30T10:38:13.762Z,32.00
2022-07-30T10:40:58.566Z,32.80
2022-07-30T10:43:47.562Z,33.10
2022-07-30T10:46:33.862Z,33.20
2022-07-30T10:49:18.460Z,32.50
2022-07-30T10:51:51.704Z,32.50
2022-07-30T10:54:36.541Z,32.20
2022-07-30T10:57:15.079Z,31.10
2022-07-30T10:59:55.498Z,31.00
2022-07-30T11:02:30.686Z,31.50
2022-07-30T11:05:18.194Z,32.10
2022-07-30T11:07:47.179Z,32.60
2022-07-30T11:10:34.843Z,33.30
2022-07-30T11:13:02.048Z,33.50
2022-07-30T11:15:51.957Z,33.20
2022-07-30T11:18:19.552Z,33.10
2022-07-30T11:21:21.179Z,32.50
2022-07-30T11:23:54.998Z,32.40
2022-07-30T11:26:40.932Z,33.20
2022-07-30T11:29:33.299Z,33.50
2022-07-30T11:32:26.610Z,33.70
2022-07-30T11:35:34.329Z,33.60
2022-07-30T11:38:04.475Z,34.30
2022-07-30T11:40:35.927Z,34.40
2022-07-30T11:43:34.673Z,35.00
2022-07-30T11:46:16.398Z,34.80
2022-07-30T11:48:56.710Z,33.90
2022-07-30T11:51:24.290Z,32.80
2022-07-30T11:54:01.808Z,32.70
2022-07-30T11:56:29.216Z,33.40
2022-07-30T11:59:07.436Z,33.40
2022-07-30T12:01:35.555Z,33.90
2022-07-30T12:04:06.912Z,34.30
2022-07-30T12:06:36.362Z,35.10
2022-07-30T12:09:03.661Z,35.40
2022-07-30T12:11:35.163Z,34.20
2022-07-30T12:14:03.226Z,33.60
2022-07-30T12:16:32.634Z,33.60
2022-07-30T12:19:04.664Z,33.00
2022-07-30T12:21:32.660Z,33.60
2022-07-30T12:24:02.310Z,33.90
2022-07-30T12:26:32.077Z,34.50
2022-07-30T12:29:02.069Z,35.60
2022-07-30T12:31:29.609Z,35.80
2022-07-30T12:33:59.103Z,36.00
2022-07-30T12:36:30.663Z,35.60
2022-07-30T12:38:59.071Z,35.10
2022-07-30T12:41:51.308Z,35.00
2022-07-30T12:44:42.130Z,35.70
2022-07-30T12:47:38.720Z,37.00
2022-07-30T12:50:17.829Z,37.70
2022-07-30T12:52:51.376Z,36.80
2022-07-30T12:55:27.774Z,35.80
2022-07-30T12:58:08.768Z,35.90
2022-07-30T13:00:51.015Z,36.40
2022-07-30T13:03:22.579Z,36.70
2022-07-30T13:05:55.253Z,36.10
2022-07-30T13:08:46.937Z,35.30
2022-07-30T13:11:14.990Z,35.20
2022-07-30T13:13:42.500Z,35.40
2022-07-30T13:16:10.630Z,34.90
2022-07-30T13:18:38.249Z,33.90
2022-07-30T13:21:09.019Z,33.40
2022-07-30T13:23:40.389Z,32.90
2022-07-30T13:26:09.227Z,32.90
2022-07-30T13:28:36.988Z,32.40
2022-07-30T13:31:04.355Z,32.70
2022-07-30T13:33:31.790Z,33.60
2022-07-30T13:35:59.184Z,34.40
2022-07-30T13:38:26.939Z,34.90
2022-07-30T13:40:57.003Z,35.30
2022-07-30T13:43:27.694Z,35.50
2022-07-30T13:45:59.904Z,35.90
2022-07-30T13:48:27.787Z,36.00
2022-07-30T13:50:55.134Z,36.00
2022-07-30T13:53:22.794Z,36.40
2022-07-30T13:55:50.073Z,37.00
2022-07-30T13:58:17.328Z,37.50
2022-07-30T14:00:48.147Z,38.20
2022-07-30T14:03:15.902Z,38.80
2022-07-30T14:05:43.744Z,39.30
2022-07-30T14:08:12.041Z,39.30
2022-07-30T14:10:40.173Z,39.10
2022-07-30T14:13:09.747Z,38.30
2022-07-30T14:15:37.569Z,37.60
2022-07-30T14:18:07.361Z,37.30
2022-07-30T14:20:35.014Z,36.60
2022-07-30T14:23:02.178Z,36.60
2022-07-30T14:25:29.501Z,37.30
2022-07-30T14:27:56.658Z,37.90
2022-07-30T14:30:24.610Z,37.00
2022-07-30T14:32:58.296Z,36.80
2022-07-30T14:35:27.722Z,36.60
2022-07-30T14:37:54.978Z,37.20
2022-07-30T14:40:22.297Z,38.00
2022-07-30T14:42:49.504Z,38.60
2022-07-30T14:45:16.702Z,39.10
2022-07-30T14:47:43.858Z,39.50
2022-07-30T14:50:11.071Z,39.40
2022-07-30T14:52:39.032Z,38.60
2022-07-30T14:55:07.875Z,37.50
2022-07-30T14:57:35.272Z,36.60
2022-07-30T15:00:03.933Z,35.80
2022-07-30T15:02:31.128Z,35.70
2022-07-30T15:04:58.351Z,35.60
2022-07-30T15:07:25.622Z,36.20
2022-07-30T15:09:53.206Z,36.90
2022-07-30T15:12:26.539Z,37.40
2022-07-30T15:14:54.480Z,37.80
2022-07-30T15:17:22.838Z,37.90
2022-07-30T15:19:51.440Z,37.30
2022-07-30T15:22:20.052Z,36.50
2022-07-30T15:24:47.762Z,36.20
2022-07-30T15:27:14.977Z,36.40
2022-07-30T15:29:43.325Z,36.80
2022-07-30T15:32:10.528Z,37.10
2022-07-30T15:34:37.708Z,37.20
2022-07-30T15:37:06.449Z,36.70
2022-07-30T15:39:36.257Z,36.70
2022-07-30T15:42:05.766Z,36.60
2022-07-30T15:44:33.988Z,36.30
2022-07-30T15:47:03.518Z,36.10
2022-07-30T15:49:32.102Z,35.10
2022-07-30T15:52:00.198Z,34.60
2022-07-30T15:54:29.710Z,34.30
2022-07-30T15:57:01.326Z,34.20
2022-07-30T15:59:30.018Z,34.30
2022-07-30T16:01:57.924Z,34.70
2022-07-30T16:04:31.378Z,34.60
2022-07-30T16:07:04.129Z,34.40
2022-07-30T16:09:31.346Z,34.00
2022-07-30T16:11:59.092Z,33.40
2022-07-30T16:14:26.992Z,32.80
2022-07-30T16:16:54.491Z,32.40
2022-07-30T16:19:21.952Z,32.10
2022-07-30T16:21:49.187Z,31.90
2022-07-30T16:24:16.817Z,31.60
2022-07-30T16:26:44.330Z,31.40
2022-07-30T16:29:13.838Z,30.90
2022-07-30T16:31:41.706Z,30.60
2022-07-30T16:34:11.210Z,30.30
2022-07-30T16:36:38.432Z,30.00
2022-07-30T16:39:06.292Z,29.90
2022-07-30T16:41:33.510Z,29.80
2022-07-30T16:44:00.936Z,29.80
2022-07-30T16:46:28.181Z,29.70
2022-07-30T16:48:55.482Z,29.40
2022-07-30T16:51:22.781Z,29.00
2022-07-30T16:53:49.990Z,28.70
2022-07-30T16:56:17.247Z,28.40
2022-07-30T16:58:44.440Z,28.20
2022-07-30T17:01:11.922Z,28.10
2022-07-30T17:03:39.448Z,28.20
2022-07-30T17:06:06.789Z,28.20
2022-07-30T17:08:34.198Z,28.30
2022-07-30T17:11:01.613Z,28.30
2022-07-30T17:13:28.803Z,28.30
2022-07-30T17:15:55.964Z,28.10
2022-07-30T17:18:23.318Z,28.00
2022-07-30T17:20:52.585Z,28.00
2022-07-30T17:23:21.259Z,27.80
2022-07-30T17:25:48.441Z,27.80
2022-07-30T17:28:17.994Z,27.70
2022-07-30T17:30:45.879Z,27.70
2022-07-30T17:33:13.585Z,27.70
2022-07-30T17:35:40.906Z,27.80
2022-07-30T17:38:08.193Z,27.90
2022-07-30T17:40:35.414Z,27.80
2022-07-30T17:43:05.884Z,27.70
2022-07-30T17:45:37.298Z,27.60
2022-07-30T17:48:05.602Z,27.50
2022-07-30T17:50:33.878Z,27.50
2022-07-30T17:53:03.354Z,27.40
2022-07-30T17:55:32.335Z,27.30
2022-07-30T17:57:59.532Z,27.10
2022-07-30T18:00:26.859Z,26.90
2022-07-30T18:02:54.100Z,26.80
2022-07-30T18:05:21.298Z,26.70
2022-07-30T18:07:48.479Z,26.60
2022-07-30T18:10:15.703Z,26.40
2022-07-30T18:12:48.665Z,26.20
2022-07-30T18:15:17.936Z,26.00
2022-07-30T18:17:45.275Z,25.90
2022-07-30T18:20:13.427Z,25.80
2022-07-30T18:22:40.918Z,25.80
2022-07-30T18:25:18.724Z,25.80
2022-07-30T18:27:47.648Z,25.80
2022-07-30T18:30:16.082Z,25.70
2022-07-30T18:32:44.902Z,25.60
2022-07-30T18:35:14.727Z,25.50
2022-07-30T18:37:43.448Z,25.40
2022-07-30T18:40:12.892Z,25.40
2022-07-30T18:42:40.201Z,25.30
2022-07-30T18:45:08.046Z,25.30
2022-07-30T18:47:35.267Z,25.30
2022-07-30T18:50:02.638Z,25.30
2022-07-30T18:52:29.870Z,25.30
2022-07-30T18:54:57.059Z,25.20
2022-07-30T18:57:24.292Z,25.20
2022-07-30T18:59:51.485Z,25.10
2022-07-30T19:02:18.716Z,25.00
2022-07-30T19:04:45.904Z,25.00
2022-07-30T19:07:13.110Z,24.90
2022-07-30T19:09:40.320Z,24.80
2022-07-30T19:12:07.942Z,24.60
2022-07-30T19:14:35.194Z,24.50
2022-07-30T19:17:02.551Z,24.40
2022-07-30T19:19:29.960Z,24.40
2022-07-30T19:21:57.575Z,24.30
2022-07-30T19:24:27.036Z,24.30
2022-07-30T19:26:56.210Z,24.20
2022-07-30T19:29:23.394Z,24.10
2022-07-30T19:31:50.589Z,24.00
2022-07-30T19:34:17.810Z,23.90
2022-07-30T19:36:45.021Z,23.80
2022-07-30T19:39:21.244Z,23.80
2022-07-30T19:41:51.076Z,23.80
2022-07-30T19:44:19.036Z,23.70
2022-07-30T19:46:48.761Z,23.70
2022-07-30T19:49:19.832Z,23.60
2022-07-30T19:52:10.169Z,23.60
2022-07-30T19:54:36.664Z,23.50
2022-07-30T19:57:04.466Z,23.40
2022-07-30T19:59:46.233Z,23.30
2022-07-30T20:02:18.859Z,23.20
2022-07-30T20:04:49.840Z,23.00
2022-07-30T20:07:17.082Z,23.00
2022-07-30T20:09:44.998Z,22.90
2022-07-30T20:12:15.892Z,22.90
2022-07-30T20:14:44.690Z,22.90
2022-07-30T20:17:12.022Z,23.00
2022-07-30T20:19:40.649Z,23.00
2022-07-30T20:22:15.814Z,23.00
2022-07-30T20:24:42.989Z,23.00
2022-07-30T20:27:37.337Z,22.90
2022-07-30T20:29:58.933Z,22.80
2022-07-30T20:32:26.296Z,22.80
2022-07-30T20:34:53.627Z,22.70
2022-07-30T20:37:22.516Z,22.70
2022-07-30T20:39:50.458Z,22.60
2022-07-30T20:42:18.680Z,22.60
2022-07-30T20:44:49.407Z,22.50
2022-07-30T20:47:34.254Z,22.40
2022-07-30T20:50:02.194Z,22.40
2022-07-30T20:52:29.402Z,22.40
2022-07-30T20:54:56.677Z,22.40
2022-07-30T20:57:55.171Z,22.50
2022-07-30T21:00:12.543Z,22.50
2022-07-30T21:02:39.718Z,22.60
2022-07-30T21:05:07.344Z,22.50
2022-07-30T21:07:36.363Z,22.40
2022-07-30T21:10:04.727Z,22.20
2022-07-30T21:12:36.287Z,22.10
2022-07-30T21:15:05.406Z,21.90
2022-07-30T21:17:50.782Z,21.80
2022-07-30T21:20:27.863Z,21.70
2022-07-30T21:23:02.103Z,21.70
2022-07-30T21:25:33.067Z,21.70
2022-07-30T21:28:02.957Z,21.70
2022-07-30T21:30:32.138Z,21.70
2022-07-30T21:33:00.137Z,21.70
2022-07-30T21:35:31.727Z,21.70
2022-07-30T21:37:59.522Z,21.70
2022-07-30T21:40:27.629Z,21.70
2022-07-30T21:42:56.276Z,21.70
2022-07-30T21:45:23.881Z,21.70
2022-07-30T21:47:55.549Z,21.70
2022-07-30T21:50:22.847Z,21.80
2022-07-30T21:52:50.562Z,21.80
2022-07-30T21:55:18.802Z,21.80
2022-07-30T21:57:48.789Z,21.80
2022-07-30T22:00:22.379Z,21.80
2022-07-30T22:02:54.002Z,21.80
2022-07-30T22:05:23.483Z,21.80
2022-07-30T22:08:07.739Z,21.80
2022-07-30T22:10:36.122Z,21.80
2022-07-30T22:13:03.689Z,21.70
2022-07-30T22:15:31.953Z,21.70
2022-07-30T22:18:00.755Z,21.70
2022-07-30T22:20:29.186Z,21.60
2022-07-30T22:22:57.979Z,21.60
2022-07-30T22:28:13.767Z,21.60
2022-07-30T22:30:44.363Z,21.60
2022-07-30T22:33:17.916Z,21.60
2022-07-30T22:35:49.496Z,21.60
2022-07-30T22:38:19.729Z,21.60
2022-07-30T22:40:47.126Z,21.50
2022-07-30T22:43:16.745Z,21.40
2022-07-30T22:45:48.215Z,21.40
2022-07-30T22:48:17.733Z,21.30
2022-07-30T22:50:48.567Z,21.30
2022-07-30T22:54:10.784Z,21.20
2022-07-30T22:56:06.850Z,21.20
2022-07-30T22:58:41.557Z,21.10
2022-07-30T23:01:11.046Z,21.00
2022-07-30T23:03:38.314Z,21.00
2022-07-30T23:06:05.594Z,20.90
2022-07-30T23:08:33.778Z,20.90
2022-07-30T23:11:01.115Z,20.80
2022-07-30T23:12:33.010Z,21.60
2022-07-30T23:13:29.457Z,20.90
2022-07-30T23:15:56.655Z,20.80
2022-07-30T23:18:23.917Z,20.80
2022-07-30T23:20:51.068Z,20.80
2022-07-30T23:23:18.249Z,20.80
2022-07-30T23:25:45.506Z,20.80
2022-07-30T23:28:12.654Z,20.80
2022-07-30T23:30:39.870Z,20.80
2022-07-30T23:33:07.032Z,20.80
2022-07-30T23:35:34.278Z,20.80
2022-07-30T23:38:02.094Z,20.80
2022-07-30T23:40:29.884Z,20.80
2022-07-30T23:42:57.162Z,20.80
2022-07-30T23:45:24.350Z,20.80
2022-07-30T23:48:01.876Z,20.80
2022-07-30T23:50:32.299Z,20.80
2022-07-30T23:53:01.050Z,20.70
2022-07-30T23:55:29.553Z,20.70
2022-07-30T23:57:57.853Z,20.70
